createdAt,value
2019-01-11T00:00:50.748Z,2.30
2019-01-11T00:03:19.418Z,2.13
2019-01-11T00:05:48.058Z,2.10
2019-01-11T00:08:16.770Z,2.47
2019-01-11T00:10:45.398Z,2.57
2019-01-11T00:13:14.627Z,2.50
2019-01-11T00:15:43.219Z,1.97
2019-01-11T00:18:11.869Z,3.37
2019-01-11T00:20:40.476Z,2.73
2019-01-11T00:23:09.063Z,2.50
2019-01-11T00:25:37.654Z,2.30
2019-01-11T00:28:06.213Z,2.40
2019-01-11T00:30:37.155Z,2.70
2019-01-11T00:33:06.137Z,2.30
2019-01-11T00:35:34.731Z,1.90
2019-01-11T00:38:03.685Z,2.43
2019-01-11T00:40:32.356Z,2.30
2019-01-11T00:43:01.262Z,3.07
2019-01-11T00:45:29.847Z,3.10
2019-01-11T00:47:58.494Z,3.27
2019-01-11T00:50:27.287Z,3.33
2019-01-11T00:52:55.842Z,2.53
2019-01-11T00:55:24.462Z,3.27
2019-01-11T00:57:53.071Z,3.67
2019-01-11T01:00:24.099Z,3.67
2019-01-11T01:02:52.928Z,3.53
2019-01-11T01:05:21.569Z,3.40
2019-01-11T01:07:50.369Z,3.77
2019-01-11T01:10:20.845Z,3.30
2019-01-11T01:12:49.559Z,3.57
2019-01-11T01:15:18.753Z,3.70
2019-01-11T01:17:47.763Z,3.70
2019-01-11T01:20:17.712Z,3.50
2019-01-11T01:22:46.446Z,4.47
2019-01-11T01:25:15.379Z,3.97
2019-01-11T01:27:44.063Z,4.07
2019-01-11T01:30:18.535Z,4.50
2019-01-11T01:32:47.198Z,4.20
2019-01-11T01:35:15.855Z,4.83
2019-01-11T01:37:44.998Z,4.60
2019-01-11T01:40:17.702Z,4.73
2019-01-11T01:42:46.577Z,4.73
2019-01-11T01:45:16.909Z,4.53
2019-01-11T01:47:45.737Z,5.00
2019-01-11T01:50:14.860Z,5.03
2019-01-11T01:52:43.539Z,4.67
2019-01-11T01:55:14.260Z,5.57
2019-01-11T01:57:42.882Z,6.33
2019-01-11T02:00:17.457Z,6.10
2019-01-11T02:02:47.448Z,6.53
2019-01-11T02:05:16.940Z,6.80
2019-01-11T02:07:45.615Z,6.20
2019-01-11T02:10:15.141Z,7.40
2019-01-11T02:12:43.728Z,7.03
2019-01-11T02:15:13.041Z,6.80
2019-01-11T02:17:41.828Z,7.10
2019-01-11T02:20:17.848Z,7.77
2019-01-11T02:22:46.561Z,7.27
2019-01-11T02:25:15.275Z,8.17
2019-01-11T02:27:43.996Z,7.87
2019-01-11T02:30:18.045Z,9.03
2019-01-11T02:32:52.541Z,8.37
2019-01-11T02:35:17.370Z,7.93
2019-01-11T02:37:46.026Z,8.20
2019-01-11T02:40:14.959Z,8.63
2019-01-11T02:42:43.642Z,8.43
2019-01-11T02:45:15.291Z,9.40
2019-01-11T02:47:43.964Z,9.00
2019-01-11T02:50:13.524Z,9.57
2019-01-11T02:52:42.311Z,9.50
2019-01-11T02:55:10.989Z,10.83
2019-01-11T02:57:39.661Z,10.93
2019-01-11T03:00:14.162Z,10.57
2019-01-11T03:02:42.852Z,10.40
2019-01-11T03:05:11.983Z,11.07
2019-01-11T03:07:41.326Z,11.27
2019-01-11T03:10:12.980Z,11.17
2019-01-11T03:12:41.589Z,12.00
2019-01-11T03:15:11.633Z,10.83
2019-01-11T03:17:40.378Z,12.53
2019-01-11T03:20:11.781Z,12.07
2019-01-11T03:22:40.393Z,13.13
2019-01-11T03:25:11.118Z,12.10
2019-01-11T03:27:39.711Z,13.07
2019-01-11T03:30:11.944Z,14.40
2019-01-11T03:32:40.496Z,14.33
2019-01-11T03:35:13.847Z,13.20
2019-01-11T03:37:43.115Z,14.33
2019-01-11T03:40:14.812Z,14.63
2019-01-11T03:42:43.516Z,14.97
2019-01-11T03:45:15.086Z,15.23
2019-01-11T03:47:43.754Z,15.33
2019-01-11T03:50:14.867Z,14.93
2019-01-11T03:52:43.479Z,15.80
2019-01-11T03:55:13.683Z,15.37
2019-01-11T03:57:42.375Z,14.67
2019-01-11T04:00:20.064Z,15.10
2019-01-11T04:02:48.783Z,14.83
2019-01-11T04:05:17.798Z,15.27
2019-01-11T04:07:46.517Z,14.50
2019-01-11T04:10:20.584Z,15.43
2019-01-11T04:12:49.691Z,14.90
2019-01-11T04:15:20.236Z,15.03
2019-01-11T04:17:51.413Z,14.67
2019-01-11T04:20:19.969Z,14.90
2019-01-11T04:22:53.017Z,14.43
2019-01-11T04:25:23.350Z,16.40
2019-01-11T04:27:52.699Z,15.53
2019-01-11T04:30:21.820Z,15.93
2019-01-11T04:32:50.566Z,15.47
2019-01-11T04:35:19.321Z,17.50
2019-01-11T04:37:48.032Z,17.00
2019-01-11T04:40:17.280Z,16.93
2019-01-11T04:42:45.855Z,15.97
2019-01-11T04:45:14.593Z,17.27
2019-01-11T04:47:43.267Z,15.87
2019-01-11T04:50:14.517Z,15.13
2019-01-11T04:52:43.125Z,16.90
2019-01-11T04:55:12.036Z,14.27
2019-01-11T04:57:40.624Z,15.30
2019-01-11T05:00:20.550Z,16.23
2019-01-11T05:02:49.194Z,14.37
2019-01-11T05:05:18.077Z,14.17
2019-01-11T05:07:46.675Z,14.50
2019-01-11T05:10:17.220Z,13.23
2019-01-11T05:12:45.798Z,13.23
2019-01-11T05:15:14.482Z,13.87
2019-01-11T05:17:43.130Z,14.50
2019-01-11T05:20:16.792Z,13.93
2019-01-11T05:22:43.619Z,13.10
2019-01-11T05:25:12.593Z,13.67
2019-01-11T05:27:41.171Z,13.67
2019-01-11T05:30:12.880Z,12.73
2019-01-11T05:32:41.529Z,12.50
2019-01-11T05:35:10.653Z,13.23
2019-01-11T05:37:39.296Z,11.23
2019-01-11T05:40:11.097Z,11.27
2019-01-11T05:42:40.081Z,11.50
2019-01-11T05:45:09.489Z,12.60
2019-01-11T05:47:38.093Z,12.13
2019-01-11T05:50:09.751Z,15.83
2019-01-11T05:52:38.423Z,11.33
2019-01-11T05:55:09.706Z,12.50
2019-01-11T05:57:39.903Z,10.87
2019-01-11T06:00:10.659Z,10.97
2019-01-11T06:02:39.235Z,10.93
2019-01-11T06:05:09.479Z,11.50
2019-01-11T06:07:39.550Z,11.33
2019-01-11T06:10:11.360Z,11.80
2019-01-11T06:12:40.261Z,12.13
2019-01-11T06:15:09.432Z,11.57
2019-01-11T06:17:38.012Z,11.07
2019-01-11T06:20:09.662Z,11.13
2019-01-11T06:22:38.299Z,11.27
2019-01-11T06:25:07.044Z,10.93
2019-01-11T06:27:35.743Z,11.17
2019-01-11T06:30:10.599Z,10.97
2019-01-11T06:32:39.186Z,11.07
2019-01-11T06:35:08.180Z,10.17
2019-01-11T06:37:36.760Z,10.30
2019-01-11T06:40:08.356Z,11.43
2019-01-11T06:42:36.893Z,10.70
2019-01-11T06:45:08.254Z,9.80
2019-01-11T06:47:37.022Z,10.77
2019-01-11T06:50:16.543Z,9.77
2019-01-11T06:52:45.099Z,9.67
2019-01-11T06:55:13.845Z,10.20
2019-01-11T06:57:42.429Z,10.10
2019-01-11T07:00:18.656Z,10.00
2019-01-11T07:02:47.337Z,9.73
2019-01-11T07:05:15.907Z,8.83
2019-01-11T07:07:44.956Z,10.17
2019-01-11T07:10:19.393Z,9.73
2019-01-11T07:12:48.135Z,9.93
2019-01-11T07:15:17.042Z,9.57
2019-01-11T07:17:45.647Z,9.63
2019-01-11T07:20:15.175Z,9.70
2019-01-11T07:22:43.763Z,8.93
2019-01-11T07:25:14.187Z,9.20
2019-01-11T07:27:44.443Z,9.00
2019-01-11T07:30:15.219Z,9.73
2019-01-11T07:32:44.046Z,10.03
2019-01-11T07:35:13.314Z,8.90
2019-01-11T07:37:41.946Z,8.30
2019-01-11T07:40:12.247Z,8.40
2019-01-11T07:42:40.848Z,8.77
2019-01-11T07:45:13.626Z,8.43
2019-01-11T07:47:42.246Z,7.87
2019-01-11T07:50:11.453Z,9.50
2019-01-11T07:52:40.285Z,8.60
2019-01-11T07:55:10.442Z,8.90
2019-01-11T07:57:39.058Z,7.93
2019-01-11T08:00:10.867Z,7.77
2019-01-11T08:02:39.650Z,8.30
2019-01-11T08:05:09.083Z,8.33
2019-01-11T08:07:37.689Z,7.50
2019-01-11T08:10:09.389Z,7.87
2019-01-11T08:12:38.361Z,8.33
2019-01-11T08:15:12.558Z,7.30
2019-01-11T08:17:41.226Z,7.37
2019-01-11T08:20:09.971Z,7.07
2019-01-11T08:22:43.047Z,7.50
2019-01-11T08:25:13.656Z,7.93
2019-01-11T08:27:42.654Z,8.23
2019-01-11T08:30:17.762Z,7.73
2019-01-11T08:32:46.366Z,7.90
2019-01-11T08:35:15.766Z,7.80
2019-01-11T08:37:44.455Z,10.00
2019-01-11T08:40:13.368Z,8.33
2019-01-11T08:42:41.965Z,9.33
2019-01-11T08:45:13.905Z,8.37
2019-01-11T08:47:42.658Z,9.20
2019-01-11T08:50:17.537Z,9.00
2019-01-11T08:52:46.528Z,8.20
2019-01-11T08:55:15.123Z,9.27
2019-01-11T08:57:43.874Z,9.50
2019-01-11T09:00:15.145Z,9.63
2019-01-11T09:02:43.824Z,10.40
2019-01-11T09:05:12.407Z,12.97
2019-01-11T09:07:41.031Z,10.70
2019-01-11T09:10:22.810Z,10.23
2019-01-11T09:12:48.834Z,10.43
2019-01-11T09:15:17.483Z,11.33
2019-01-11T09:18:02.761Z,12.47
2019-01-11T09:20:31.436Z,11.70
2019-01-11T09:23:00.469Z,12.17
2019-01-11T09:25:29.041Z,12.27
2019-01-11T09:27:57.643Z,12.87
2019-01-11T09:30:26.216Z,13.20
2019-01-11T09:32:54.971Z,12.13
2019-01-11T09:35:24.146Z,12.43
2019-01-11T09:37:53.342Z,11.73
2019-01-11T09:40:22.036Z,14.80
2019-01-11T09:42:50.982Z,12.93
2019-01-11T09:45:19.652Z,12.87
2019-01-11T09:47:48.222Z,13.77
2019-01-11T09:50:16.828Z,14.43
2019-01-11T09:52:45.410Z,15.27
2019-01-11T09:55:14.335Z,15.97
2019-01-11T09:57:44.812Z,14.57
2019-01-11T10:00:19.704Z,14.97
2019-01-11T10:02:50.203Z,15.07
2019-01-11T10:05:18.895Z,15.40
2019-01-11T10:07:47.531Z,16.67
2019-01-11T10:10:16.276Z,16.43
2019-01-11T10:12:45.985Z,17.50
2019-01-11T10:15:16.268Z,16.57
2019-01-11T10:17:46.641Z,18.03
2019-01-11T10:20:15.757Z,17.70
2019-01-11T10:22:44.357Z,17.93
2019-01-11T10:25:13.127Z,16.23
2019-01-11T10:27:41.703Z,17.83
2019-01-11T10:30:18.463Z,17.77
2019-01-11T10:32:47.357Z,17.10
2019-01-11T10:35:16.013Z,17.97
2019-01-11T10:37:45.038Z,15.33
2019-01-11T10:40:16.903Z,17.33
2019-01-11T10:42:45.983Z,19.63
2019-01-11T10:45:20.090Z,18.23
2019-01-11T10:47:48.672Z,17.63
2019-01-11T10:50:17.935Z,17.50
2019-01-11T10:52:46.662Z,17.33
2019-01-11T10:55:16.630Z,14.87
2019-01-11T10:57:45.737Z,13.20
2019-01-11T11:00:20.791Z,14.43
2019-01-11T11:02:50.639Z,14.13
2019-01-11T11:05:19.858Z,13.30
2019-01-11T11:07:48.886Z,12.83
2019-01-11T11:10:17.627Z,12.03
2019-01-11T11:12:46.619Z,13.87
2019-01-11T11:15:17.625Z,11.70
2019-01-11T11:17:46.849Z,12.47
2019-01-11T11:20:17.396Z,12.00
2019-01-11T11:22:46.124Z,12.27
2019-01-11T11:25:19.750Z,11.27
2019-01-11T11:27:48.776Z,13.03
2019-01-11T11:30:19.106Z,12.00
2019-01-11T11:32:52.037Z,9.77
2019-01-11T11:35:20.725Z,12.50
2019-01-11T11:37:49.436Z,13.43
2019-01-11T11:40:18.127Z,10.87
2019-01-11T11:42:46.875Z,12.03
2019-01-11T11:45:16.108Z,12.30
2019-01-11T11:47:44.728Z,12.07
2019-01-11T11:50:13.540Z,11.10
2019-01-11T11:52:45.163Z,13.83
2019-01-11T11:55:13.740Z,11.20
2019-01-11T11:57:42.363Z,10.13
2019-01-11T12:00:16.766Z,10.83
2019-01-11T12:02:45.329Z,9.97
2019-01-11T12:05:14.043Z,9.13
2019-01-11T12:07:42.729Z,9.57
2019-01-11T12:10:13.855Z,11.37
2019-01-11T12:12:42.532Z,10.10
2019-01-11T12:15:13.055Z,10.57
2019-01-11T12:17:41.823Z,11.10
2019-01-11T12:20:13.474Z,10.97
2019-01-11T12:22:42.150Z,12.13
2019-01-11T12:25:10.737Z,11.80
2019-01-11T12:27:40.413Z,11.00
2019-01-11T12:30:12.016Z,11.03
2019-01-11T12:32:40.606Z,11.73
2019-01-11T12:35:09.276Z,10.97
2019-01-11T12:37:37.906Z,11.00
2019-01-11T12:40:11.766Z,11.23
2019-01-11T12:42:40.306Z,10.70
2019-01-11T12:45:11.723Z,10.70
2019-01-11T12:47:40.377Z,10.70
2019-01-11T12:50:12.364Z,11.37
2019-01-11T12:52:40.980Z,11.70
2019-01-11T12:55:09.581Z,12.60
2019-01-11T12:57:38.354Z,11.87
2019-01-11T13:00:10.214Z,12.10
2019-01-11T13:02:38.870Z,12.03
2019-01-11T13:05:10.254Z,11.97
2019-01-11T13:07:38.961Z,12.53
2019-01-11T13:10:10.956Z,11.80
2019-01-11T13:12:39.650Z,11.53
2019-01-11T13:15:11.573Z,12.27
2019-01-11T13:17:40.285Z,9.97
2019-01-11T13:20:12.255Z,10.73
2019-01-11T13:22:43.413Z,10.93
2019-01-11T13:25:12.151Z,11.00
2019-01-11T13:27:40.851Z,10.17
2019-01-11T13:30:13.068Z,10.30
2019-01-11T13:32:41.729Z,10.37
2019-01-11T13:35:10.462Z,11.13
2019-01-11T13:37:39.444Z,11.10
2019-01-11T13:40:13.743Z,11.37
2019-01-11T13:42:42.421Z,9.97
2019-01-11T13:45:11.661Z,11.07
2019-01-11T13:47:43.278Z,9.50
2019-01-11T13:50:14.987Z,11.30
2019-01-11T13:52:46.836Z,11.33
2019-01-11T13:55:15.527Z,9.03
2019-01-11T13:57:44.228Z,9.33
2019-01-11T14:00:14.752Z,9.63
2019-01-11T14:02:43.631Z,10.57
2019-01-11T14:05:13.563Z,9.27
2019-01-11T14:07:42.506Z,8.50
2019-01-11T14:10:11.098Z,7.73
2019-01-11T14:12:41.056Z,8.50
2019-01-11T14:15:11.767Z,7.83
2019-01-11T14:17:40.350Z,7.57
2019-01-11T14:20:11.027Z,8.10
2019-01-11T14:22:39.640Z,7.23
2019-01-11T14:25:10.822Z,7.03
2019-01-11T14:27:39.504Z,7.50
2019-01-11T14:30:19.586Z,8.23
2019-01-11T14:32:48.637Z,6.50
2019-01-11T14:35:17.226Z,7.83
2019-01-11T14:37:45.912Z,7.93
2019-01-11T14:40:16.682Z,8.03
2019-01-11T14:42:46.428Z,7.50
2019-01-11T14:45:16.961Z,7.47
2019-01-11T14:47:46.790Z,7.40
2019-01-11T14:50:17.872Z,7.57
2019-01-11T14:52:46.922Z,7.83
2019-01-11T14:55:15.592Z,7.87
2019-01-11T14:57:44.174Z,8.47
2019-01-11T15:00:21.354Z,7.73
2019-01-11T15:02:50.373Z,8.30
2019-01-11T15:05:19.932Z,8.17
2019-01-11T15:07:49.014Z,9.70
2019-01-11T15:10:17.733Z,8.40
2019-01-11T15:12:47.746Z,8.83
2019-01-11T15:15:16.485Z,10.37
2019-01-11T15:17:45.127Z,9.20
2019-01-11T15:20:15.901Z,9.63
2019-01-11T15:22:44.653Z,9.70
2019-01-11T15:25:13.427Z,9.63
2019-01-11T15:27:41.994Z,9.43
2019-01-11T15:30:18.187Z,9.03
2019-01-11T15:32:46.829Z,9.63
2019-01-11T15:35:15.592Z,8.80
2019-01-11T15:37:44.624Z,9.73
2019-01-11T15:40:16.628Z,9.80
2019-01-11T15:42:45.220Z,9.77
2019-01-11T15:45:14.111Z,9.23
2019-01-11T15:47:42.716Z,9.57
2019-01-11T15:50:31.009Z,11.97
2019-01-11T15:52:59.732Z,8.97
2019-01-11T15:55:28.336Z,10.13
2019-01-11T15:57:56.926Z,8.63
2019-01-11T16:00:25.560Z,8.50
2019-01-11T16:02:54.116Z,9.33
2019-01-11T16:05:22.836Z,8.73
2019-01-11T16:07:51.418Z,9.30
2019-01-11T16:10:21.152Z,8.97
2019-01-11T16:12:50.706Z,8.97
2019-01-11T16:15:34.685Z,9.53
2019-01-11T16:18:06.372Z,8.60
2019-01-11T16:20:35.860Z,9.07
2019-01-11T16:23:04.565Z,9.23
2019-01-11T16:25:33.614Z,9.27
2019-01-11T16:28:02.572Z,10.13
2019-01-11T16:30:31.171Z,8.90
2019-01-11T16:32:59.795Z,8.87
2019-01-11T16:35:28.728Z,8.40
2019-01-11T16:37:57.332Z,9.33
2019-01-11T16:40:26.002Z,9.43
2019-01-11T16:42:54.572Z,8.67
2019-01-11T16:45:23.185Z,9.13
2019-01-11T16:47:51.805Z,8.67
2019-01-11T16:50:21.115Z,8.10
2019-01-11T16:52:49.692Z,9.03
2019-01-11T16:55:18.317Z,9.03
2019-01-11T16:57:46.923Z,10.30
2019-01-11T17:00:23.489Z,11.07
2019-01-11T17:02:52.123Z,8.73
2019-01-11T17:05:20.703Z,8.87
2019-01-11T17:07:49.314Z,9.73
2019-01-11T17:10:17.866Z,9.20
2019-01-11T17:12:46.505Z,10.13
2019-01-11T17:15:18.163Z,8.83
2019-01-11T17:17:46.766Z,8.90
2019-01-11T17:20:17.074Z,8.03
2019-01-11T17:22:45.751Z,8.10
2019-01-11T17:25:14.394Z,7.43
2019-01-11T17:27:43.142Z,7.50
2019-01-11T17:30:16.718Z,6.23
2019-01-11T17:32:45.364Z,7.03
2019-01-11T17:35:13.905Z,6.53
2019-01-11T17:37:42.506Z,7.30
2019-01-11T17:40:12.230Z,6.60
2019-01-11T17:42:40.838Z,6.07
2019-01-11T17:45:11.809Z,5.30
2019-01-11T17:47:40.396Z,6.37
2019-01-11T17:50:14.062Z,6.50
2019-01-11T17:52:43.451Z,7.47
2019-01-11T17:55:12.201Z,6.80
2019-01-11T17:57:41.543Z,5.10
2019-01-11T18:00:13.128Z,4.10
2019-01-11T18:02:41.801Z,4.87
2019-01-11T18:05:12.409Z,5.10
2019-01-11T18:07:41.418Z,3.00
2019-01-11T18:10:11.286Z,3.40
2019-01-11T18:12:40.234Z,3.20
2019-01-11T18:15:11.818Z,3.50
2019-01-11T18:17:40.403Z,3.43
2019-01-11T18:20:12.336Z,3.20
2019-01-11T18:22:40.994Z,4.00
2019-01-11T18:25:09.646Z,3.47
2019-01-11T18:27:38.640Z,3.60
2019-01-11T18:30:10.619Z,3.63
2019-01-11T18:32:39.237Z,3.50
2019-01-11T18:35:07.934Z,3.10
2019-01-11T18:37:36.699Z,3.93
2019-01-11T18:40:13.623Z,3.43
2019-01-11T18:42:42.234Z,3.80
2019-01-11T18:45:10.947Z,3.40
2019-01-11T18:47:39.579Z,3.27
2019-01-11T18:50:15.029Z,3.50
2019-01-11T18:52:43.643Z,2.47
2019-01-11T18:55:12.370Z,3.50
2019-01-11T18:57:41.043Z,5.17
2019-01-11T19:00:18.672Z,3.77
2019-01-11T19:02:47.417Z,3.43
2019-01-11T19:05:16.436Z,2.50
2019-01-11T19:07:46.224Z,2.40
2019-01-11T19:10:17.152Z,1.90
2019-01-11T19:12:46.119Z,2.83
2019-01-11T19:15:17.243Z,3.53
2019-01-11T19:17:46.370Z,3.60
2019-01-11T19:20:17.523Z,2.03
2019-01-11T19:22:46.241Z,3.27
2019-01-11T19:25:24.054Z,2.87
2019-01-11T19:27:52.824Z,2.10
2019-01-11T19:30:26.365Z,2.63
2019-01-11T19:32:55.431Z,2.60
2019-01-11T19:35:24.209Z,2.97
2019-01-11T19:37:52.818Z,2.90
2019-01-11T19:40:21.456Z,2.63
2019-01-11T19:42:50.036Z,2.63
2019-01-11T19:45:18.714Z,2.47
2019-01-11T19:47:47.366Z,2.30
2019-01-11T19:50:18.109Z,2.30
2019-01-11T19:52:47.631Z,2.93
2019-01-11T19:55:18.005Z,2.47
2019-01-11T19:57:46.583Z,3.73
2019-01-11T20:00:17.997Z,3.33
2019-01-11T20:02:47.120Z,2.90
2019-01-11T20:05:16.174Z,3.30
2019-01-11T20:07:44.742Z,3.10
2019-01-11T20:10:19.105Z,2.50
2019-01-11T20:12:47.678Z,3.43
2019-01-11T20:15:16.350Z,2.50
2019-01-11T20:17:45.034Z,4.23
2019-01-11T20:20:14.870Z,3.43
2019-01-11T20:22:43.739Z,2.80
2019-01-11T20:25:17.463Z,2.93
2019-01-11T20:27:46.879Z,3.83
2019-01-11T20:30:18.057Z,3.87
2019-01-11T20:32:46.886Z,3.97
2019-01-11T20:35:15.910Z,2.70
2019-01-11T20:37:44.607Z,3.53
2019-01-11T20:40:15.267Z,2.57
2019-01-11T20:42:45.057Z,3.83
2019-01-11T20:45:18.455Z,4.03
2019-01-11T20:47:47.035Z,4.27
2019-01-11T20:50:18.255Z,4.37
2019-01-11T20:52:47.694Z,4.10
2019-01-11T20:55:16.438Z,4.00
2019-01-11T20:57:45.446Z,3.43
2019-01-11T21:00:17.800Z,4.37
2019-01-11T21:02:46.524Z,4.40
2019-01-11T21:05:15.778Z,4.03
2019-01-11T21:07:44.445Z,3.93
2019-01-11T21:10:14.951Z,3.47
2019-01-11T21:12:43.594Z,4.37
2019-01-11T21:15:15.102Z,3.37
2019-01-11T21:17:43.756Z,3.77
2019-01-11T21:20:15.098Z,4.37
2019-01-11T21:22:44.340Z,5.87
2019-01-11T21:25:15.454Z,6.70
2019-01-11T21:27:44.129Z,4.50
2019-01-11T21:30:24.748Z,4.23
2019-01-11T21:32:53.634Z,4.93
2019-01-11T21:35:22.697Z,5.60
2019-01-11T21:37:51.626Z,4.80
2019-01-11T21:40:21.029Z,4.30
2019-01-11T21:42:50.150Z,4.80
2019-01-11T21:45:19.171Z,4.27
2019-01-11T21:47:47.889Z,4.23
2019-01-11T21:50:18.616Z,4.80
2019-01-11T21:52:47.314Z,5.30
2019-01-11T21:55:16.266Z,5.00
2019-01-11T21:57:45.620Z,5.43
2019-01-11T22:00:17.338Z,4.97
2019-01-11T22:02:46.296Z,5.53
2019-01-11T22:05:15.020Z,4.37
2019-01-11T22:07:43.655Z,4.80
2019-01-11T22:10:14.860Z,5.83
2019-01-11T22:12:43.449Z,4.70
2019-01-11T22:15:15.167Z,4.90
2019-01-11T22:17:44.063Z,7.03
2019-01-11T22:20:15.019Z,5.37
2019-01-11T22:22:44.066Z,5.27
2019-01-11T22:25:16.735Z,6.13
2019-01-11T22:27:46.361Z,5.63
2019-01-11T22:30:20.489Z,5.90
2019-01-11T22:32:49.140Z,5.30
2019-01-11T22:35:18.508Z,5.60
2019-01-11T22:37:47.652Z,5.90
2019-01-11T22:40:18.261Z,5.47
2019-01-11T22:42:47.738Z,5.70
2019-01-11T22:45:16.331Z,4.63
2019-01-11T22:47:45.035Z,6.37
2019-01-11T22:50:16.675Z,5.63
2019-01-11T22:52:45.337Z,5.87
2019-01-11T22:55:16.458Z,5.63
2019-01-11T22:57:45.145Z,5.73
2019-01-11T23:00:45.748Z,5.30
2019-01-11T23:03:26.614Z,5.43
2019-01-11T23:06:01.019Z,5.27
2019-01-11T23:08:29.627Z,5.90
2019-01-11T23:11:12.542Z,5.50
2019-01-11T23:13:41.138Z,5.60
2019-01-11T23:16:12.702Z,5.30
2019-01-11T23:18:41.354Z,7.57
2019-01-11T23:21:10.100Z,5.87
2019-01-11T23:23:38.686Z,5.67
2019-01-11T23:26:07.320Z,5.07
2019-01-11T23:28:35.959Z,5.07
2019-01-11T23:31:04.860Z,7.53
2019-01-11T23:33:33.463Z,5.87
2019-01-11T23:36:02.314Z,5.10
2019-01-11T23:38:31.302Z,6.53
2019-01-11T23:40:59.871Z,5.53
2019-01-11T23:43:28.806Z,5.47
2019-01-11T23:45:57.429Z,5.20
2019-01-11T23:48:26.591Z,5.60
2019-01-11T23:50:55.488Z,5.47
2019-01-11T23:53:24.094Z,6.50
2019-01-11T23:55:52.693Z,5.60
2019-01-11T23:58:21.870Z,5.03
